Weather at Hoeyang Southeast Airfield

Public forecast

Using degrees Celsius for public forecast. Weather courtesy of forecast.io.

Closest aviation weather report (METAR) to Hoeyang Southeast Airfield

Closest report is Yangyang International Airport, 59.9 nm (110.9 km) SE. Retrieved 2020/10/29 06:00 UTC (53 minutes ago):

RKNY 290600Z 05005KT 350V100 CAVOK 14/01 Q1021 NOSIG

Closest aviation forecast (TAF) to Hoeyang Southeast Airfield

Closest forecast is Wonsan Kalma International Airport, 31.5 nm (58.3 km) NNW. Retrieved 2020/10/29 06:20 UTC (33 minutes ago):

TAF ZKPY 290420Z 2906/3006 32006MPS CAVOK TX15/2906Z TN01/2921Z TAF ZKWS 290420Z 2906/3006 27005MPS CAVOK TX16/2906Z TN03/2921Z